createdAt,value
2023-05-19T00:00:22.586Z,101051.89
2023-05-19T00:01:24.343Z,101044.06
2023-05-19T00:02:26.305Z,101047.54
2023-05-19T00:03:28.299Z,101044.07
2023-05-19T00:04:30.034Z,101041.44
2023-05-19T00:05:31.800Z,101040.58
2023-05-19T00:06:33.618Z,101042.32
2023-05-19T00:09:02.567Z,101046.74
2023-05-19T00:10:04.616Z,101043.22
2023-05-19T00:11:06.355Z,101042.36
2023-05-19T00:13:29.419Z,101042.41
2023-05-19T00:14:31.257Z,101043.28
2023-05-19T00:15:33.156Z,101039.80
2023-05-19T00:16:35.092Z,101039.81
2023-05-19T00:17:36.898Z,101039.81
2023-05-19T00:18:38.673Z,101043.34
2023-05-19T00:19:40.617Z,101040.72
2023-05-19T00:20:42.439Z,101039.88
2023-05-19T00:21:44.177Z,101032.91
2023-05-19T00:22:45.924Z,101037.25
2023-05-19T00:23:47.685Z,101048.62
2023-05-19T00:24:49.452Z,101045.14
2023-05-19T00:25:51.192Z,101051.28
2023-05-19T00:26:53.024Z,101049.52
2023-05-19T00:27:54.852Z,101043.36
2023-05-19T00:28:56.713Z,101050.40
2023-05-19T00:29:58.461Z,101052.17
2023-05-19T00:31:00.288Z,101042.53
2023-05-19T00:32:02.181Z,101048.64
2023-05-19T00:33:04.100Z,101040.78
2023-05-19T00:34:05.840Z,101046.93
2023-05-19T00:35:07.591Z,101041.69
2023-05-19T00:36:09.527Z,101035.62
2023-05-19T00:37:11.367Z,101040.87
2023-05-19T00:38:13.192Z,101045.23
2023-05-19T00:39:15.099Z,101041.75
2023-05-19T00:40:16.929Z,101044.38
2023-05-19T00:41:18.841Z,101044.36
2023-05-19T00:42:20.623Z,101042.65
2023-05-19T00:43:22.455Z,101037.39
2023-05-19T00:44:24.345Z,101039.10
2023-05-19T00:45:26.096Z,101039.10
2023-05-19T00:46:28.008Z,101039.98
2023-05-19T00:47:29.940Z,101038.23
2023-05-19T00:48:31.822Z,101039.12
2023-05-19T00:49:33.702Z,101038.25
2023-05-19T00:50:35.567Z,101041.73
2023-05-19T00:51:37.305Z,101032.12
2023-05-19T00:52:39.046Z,101040.87
2023-05-19T00:53:40.803Z,101031.25
2023-05-19T00:54:42.562Z,101031.25
2023-05-19T00:55:44.303Z,101036.48
2023-05-19T00:56:46.143Z,101040.86
2023-05-19T00:57:47.913Z,101039.12
2023-05-19T00:58:49.741Z,101035.58
2023-05-19T00:59:51.528Z,101039.98
2023-05-19T01:00:53.386Z,101039.95
2023-05-19T01:01:55.210Z,101041.73
2023-05-19T01:02:57.346Z,101035.55
2023-05-19T01:03:59.485Z,101038.16
2023-05-19T01:05:01.395Z,101038.16
2023-05-19T01:06:03.234Z,101043.41
2023-05-19T01:07:05.081Z,101045.16
2023-05-19T01:08:06.828Z,101041.65
2023-05-19T01:09:08.561Z,101040.76
2023-05-19T01:10:10.547Z,101043.39
2023-05-19T01:11:12.397Z,101038.13
2023-05-19T01:12:14.259Z,101048.64
2023-05-19T01:13:16.097Z,101044.28
2023-05-19T01:14:17.938Z,101039.06
2023-05-19T01:15:19.812Z,101041.65
2023-05-19T01:16:21.697Z,101039.90
2023-05-19T01:17:23.407Z,101040.76
2023-05-19T01:18:25.154Z,101038.13
2023-05-19T01:19:27.011Z,101036.39
2023-05-19T01:20:28.882Z,101045.16
2023-05-19T01:21:30.794Z,101038.16
2023-05-19T01:22:32.624Z,101039.09
2023-05-19T01:23:34.374Z,101038.23
2023-05-19T01:24:36.112Z,101046.16
2023-05-19T01:25:38.029Z,101044.41
2023-05-19T01:26:39.845Z,101047.05
2023-05-19T01:27:41.689Z,101051.47
2023-05-19T01:28:43.564Z,101048.86
2023-05-19T01:29:45.396Z,101053.24
2023-05-19T01:30:47.270Z,101048.86
2023-05-19T01:31:49.086Z,101038.34
2023-05-19T01:32:50.798Z,101042.72
2023-05-19T01:33:52.623Z,101040.95
2023-05-19T01:34:54.352Z,101037.47
2023-05-19T01:35:56.203Z,101042.72
2023-05-19T01:36:58.052Z,101043.58
2023-05-19T01:37:59.901Z,101045.38
2023-05-19T01:39:01.738Z,101062.03
2023-05-19T01:40:03.586Z,101055.93
2023-05-19T01:41:05.476Z,101057.67
2023-05-19T01:42:07.322Z,101046.27
2023-05-19T01:43:09.074Z,101041.89
2023-05-19T01:44:10.800Z,101050.69
2023-05-19T01:45:12.539Z,101048.06
2023-05-19T01:46:14.937Z,101046.31
2023-05-19T01:47:16.785Z,101048.88
2023-05-19T01:48:18.524Z,101051.49
2023-05-19T01:49:20.260Z,101059.38
2023-05-19T01:50:22.099Z,101069.02
2023-05-19T01:51:23.967Z,101063.74
2023-05-19T01:52:25.823Z,101063.74
2023-05-19T01:53:27.676Z,101064.63
2023-05-19T01:54:29.553Z,101067.27
2023-05-19T01:55:31.294Z,101066.41
2023-05-19T01:56:33.187Z,101064.66
2023-05-19T01:57:35.030Z,101062.05
2023-05-19T01:58:36.868Z,101073.42
2023-05-19T01:59:38.716Z,101064.68
2023-05-19T02:00:40.565Z,101057.67
2023-05-19T02:01:42.515Z,101059.42
2023-05-19T02:02:44.313Z,101061.19
2023-05-19T02:03:46.039Z,101064.66
2023-05-19T02:04:47.913Z,101066.39
2023-05-19T02:05:49.928Z,101067.25
2023-05-19T02:06:51.821Z,101060.22
2023-05-19T02:07:53.681Z,101064.60
2023-05-19T02:08:55.412Z,101071.61
2023-05-19T02:09:57.145Z,101061.13
2023-05-19T02:10:58.996Z,101075.95
2023-05-19T02:12:00.774Z,101071.58
2023-05-19T02:13:02.533Z,101067.17
2023-05-19T02:14:04.287Z,101071.56
2023-05-19T02:15:06.133Z,101073.30
2023-05-19T02:16:08.516Z,101069.79
2023-05-19T02:17:10.346Z,101060.16
2023-05-19T02:18:12.124Z,101061.02
2023-05-19T02:19:13.967Z,101056.58
2023-05-19T02:20:15.786Z,101057.45
2023-05-19T02:21:17.640Z,101057.43
2023-05-19T02:22:19.428Z,101054.78
2023-05-19T02:23:21.286Z,101057.39
2023-05-19T02:24:23.108Z,101058.23
2023-05-19T02:25:24.965Z,101060.84
2023-05-19T02:26:26.814Z,101053.80
2023-05-19T02:27:28.697Z,101055.53
2023-05-19T02:28:30.553Z,101059.92
2023-05-19T02:29:32.285Z,101059.00
2023-05-19T02:30:34.265Z,101054.61
2023-05-19T02:31:36.234Z,101063.34
2023-05-19T02:32:38.035Z,101067.73
2023-05-19T02:33:39.803Z,101056.36
2023-05-19T02:34:41.550Z,101063.34
2023-05-19T02:35:43.399Z,101082.65
2023-05-19T02:36:45.239Z,101091.37
2023-05-19T02:37:47.019Z,101085.28
2023-05-19T02:38:48.769Z,101088.77
2023-05-19T02:39:50.529Z,101088.79
2023-05-19T02:40:52.372Z,101087.92
2023-05-19T02:41:54.102Z,101091.45
2023-05-19T02:42:55.994Z,101096.73
2023-05-19T02:43:57.740Z,101092.37
2023-05-19T02:44:59.600Z,101100.27
2023-05-19T02:46:01.479Z,101097.65
2023-05-19T02:47:03.280Z,101094.16
2023-05-19T02:48:05.207Z,101094.18
2023-05-19T02:49:07.019Z,101100.31
2023-05-19T02:50:09.370Z,101097.73
2023-05-19T02:51:11.118Z,101105.64
2023-05-19T02:52:12.960Z,101095.99
2023-05-19T02:53:14.852Z,101090.77
2023-05-19T02:54:16.679Z,101103.08
2023-05-19T02:55:18.522Z,101093.45
2023-05-19T02:56:20.448Z,101096.11
2023-05-19T02:57:22.299Z,101094.34
2023-05-19T02:58:24.179Z,101100.51
2023-05-19T02:59:26.014Z,101094.36
2023-05-19T03:00:27.858Z,101102.25
2023-05-19T03:01:29.707Z,101107.50
2023-05-19T03:02:31.523Z,101104.89
2023-05-19T03:03:33.360Z,101104.03
2023-05-19T03:04:35.167Z,101102.28
2023-05-19T03:05:36.900Z,101098.79
2023-05-19T03:06:38.952Z,101098.79
2023-05-19T03:07:40.864Z,101104.06
2023-05-19T03:08:42.710Z,101109.31
2023-05-19T03:09:44.667Z,101100.55
2023-05-19T03:10:46.618Z,101107.54
2023-05-19T03:11:48.370Z,101097.95
2023-05-19T03:12:50.331Z,101097.04
2023-05-19T03:13:52.272Z,101103.17
2023-05-19T03:14:54.528Z,101111.05
2023-05-19T03:15:56.315Z,101107.52
2023-05-19T03:16:58.330Z,101107.52
2023-05-19T03:18:00.259Z,101104.89
2023-05-19T03:19:02.294Z,101105.78
2023-05-19T03:20:04.380Z,101104.89
2023-05-19T03:21:06.229Z,101107.52
2023-05-19T03:22:07.973Z,101093.52
2023-05-19T03:23:09.790Z,101107.52
2023-05-19T03:24:11.681Z,101103.17
2023-05-19T03:25:13.406Z,101104.91
2023-05-19T03:26:15.735Z,101102.28
2023-05-19T03:27:17.776Z,101098.79
2023-05-19T03:28:19.521Z,101106.66
2023-05-19T03:29:21.395Z,101104.05
2023-05-19T03:30:23.240Z,101108.45
2023-05-19T03:31:25.168Z,101105.84
2023-05-19T03:32:27.416Z,101108.47
2023-05-19T03:33:29.393Z,101110.20
2023-05-19T03:34:31.224Z,101104.96
2023-05-19T03:35:33.073Z,101105.84
2023-05-19T03:36:35.033Z,101104.09
2023-05-19T03:37:36.978Z,101097.08
2023-05-19T03:38:38.948Z,101100.58
2023-05-19T03:39:40.715Z,101098.81
2023-05-19T03:40:42.631Z,101102.28
2023-05-19T03:41:44.587Z,101100.56
2023-05-19T03:42:46.849Z,101097.04
2023-05-19T03:43:48.709Z,101106.68
2023-05-19T03:44:50.642Z,101100.55
2023-05-19T03:45:52.662Z,101101.42
2023-05-19T03:46:54.554Z,101111.92
2023-05-19T03:47:56.492Z,101107.52
2023-05-19T03:48:58.358Z,101107.52
2023-05-19T03:50:00.236Z,101109.27
2023-05-19T03:51:02.375Z,101103.17
2023-05-19T03:52:04.308Z,101113.69
2023-05-19T03:53:06.077Z,101107.50
2023-05-19T03:54:08.009Z,101109.27
2023-05-19T03:55:09.866Z,101113.64
2023-05-19T03:56:11.926Z,101105.73
2023-05-19T03:57:13.784Z,101102.22
2023-05-19T03:58:15.732Z,101110.95
2023-05-19T03:59:17.670Z,101110.95
2023-05-19T04:00:19.941Z,101105.67
2023-05-19T04:01:21.898Z,101115.30
2023-05-19T04:02:23.713Z,101112.67
2023-05-19T04:03:25.535Z,101116.14
2023-05-19T04:04:27.362Z,101110.90
2023-05-19T04:05:29.174Z,101114.34
2023-05-19T04:06:31.042Z,101113.47
2023-05-19T04:07:32.743Z,101114.31
2023-05-19T04:08:34.490Z,101115.20
2023-05-19T04:09:36.221Z,101116.08
2023-05-19T04:10:38.299Z,101109.94
2023-05-19T04:11:40.121Z,101108.17
2023-05-19T04:12:41.958Z,101110.80
2023-05-19T04:13:45.193Z,101116.06
2023-05-19T04:14:47.269Z,101113.44
2023-05-19T04:15:49.101Z,101115.20
2023-05-19T04:16:50.965Z,101116.06
2023-05-19T04:17:52.765Z,101121.33
2023-05-19T04:18:54.589Z,101111.66
2023-05-19T04:19:56.521Z,101117.81
2023-05-19T04:20:58.675Z,101124.80
2023-05-19T04:22:00.622Z,101119.53
2023-05-19T04:23:02.575Z,101121.28
2023-05-19T04:24:04.482Z,101123.90
2023-05-19T04:25:06.376Z,101118.64
2023-05-19T04:26:08.844Z,101115.13
2023-05-19T04:27:10.699Z,101117.73
2023-05-19T04:28:12.644Z,101114.23
2023-05-19T04:29:14.497Z,101117.72
2023-05-19T04:30:18.426Z,101106.34
2023-05-19T04:31:20.101Z,101106.34
2023-05-19T04:32:21.935Z,101112.43
2023-05-19T04:33:23.943Z,101122.94
2023-05-19T04:34:25.686Z,101122.05
2023-05-19T04:35:27.644Z,101119.42
2023-05-19T04:36:29.700Z,101119.42
2023-05-19T04:37:31.571Z,101127.23
2023-05-19T04:38:33.544Z,101115.80
2023-05-19T04:39:35.554Z,101114.04
2023-05-19T04:40:37.409Z,101113.11
2023-05-19T04:41:39.358Z,101115.70
2023-05-19T04:42:41.224Z,101125.30
2023-05-19T04:43:43.266Z,101117.36
2023-05-19T04:44:45.128Z,101115.59
2023-05-19T04:45:47.077Z,101113.78
2023-05-19T04:46:49.270Z,101113.76
2023-05-19T04:47:51.202Z,101115.48
2023-05-19T04:48:53.021Z,101116.33
2023-05-19T04:49:54.875Z,101111.93
2023-05-19T04:50:56.843Z,101117.17
2023-05-19T04:51:58.778Z,101118.87
2023-05-19T04:53:00.632Z,101122.38
2023-05-19T04:54:02.476Z,101124.94
2023-05-19T04:55:04.427Z,101117.89
2023-05-19T04:56:06.595Z,101124.89
2023-05-19T04:57:08.538Z,101123.12
2023-05-19T04:58:10.398Z,101123.95
2023-05-19T04:59:12.241Z,101123.06
2023-05-19T05:00:15.025Z,101121.27
2023-05-19T05:01:17.117Z,101124.77
2023-05-19T05:02:19.264Z,101128.22
2023-05-19T05:03:21.364Z,101122.92
2023-05-19T05:04:23.194Z,101121.14
2023-05-19T05:05:25.079Z,101125.46
2023-05-19T05:06:26.934Z,101120.12
2023-05-19T05:07:30.844Z,101127.12
2023-05-19T05:08:32.384Z,101124.47
2023-05-19T05:09:34.327Z,101128.80
2023-05-19T05:10:36.379Z,101119.07
2023-05-19T05:11:38.276Z,101126.03
2023-05-19T05:12:40.051Z,101119.83
2023-05-19T05:13:41.927Z,101121.52
2023-05-19T05:14:43.764Z,101117.09
2023-05-19T05:15:45.595Z,101121.39
2023-05-19T05:16:47.572Z,101118.73
2023-05-19T05:17:49.882Z,101119.51
2023-05-19T05:18:51.918Z,101119.51
2023-05-19T05:19:53.849Z,101115.06
2023-05-19T05:20:55.703Z,101120.28
2023-05-19T05:21:57.649Z,101121.13
2023-05-19T05:22:59.508Z,101108.73
2023-05-19T05:24:01.467Z,101113.95
2023-05-19T05:25:03.410Z,101121.81
2023-05-19T05:26:05.467Z,101120.00
2023-05-19T05:27:07.409Z,101113.78
2023-05-19T05:28:09.295Z,101121.64
2023-05-19T05:29:11.351Z,101118.08
2023-05-19T05:30:13.372Z,101118.87
2023-05-19T05:31:15.230Z,101125.84
2023-05-19T05:32:17.062Z,101118.80
2023-05-19T05:33:19.158Z,101122.26
2023-05-19T05:34:21.287Z,101116.06
2023-05-19T05:35:23.140Z,101118.70
2023-05-19T05:36:25.032Z,101122.17
2023-05-19T05:37:26.940Z,101120.36
2023-05-19T05:38:28.720Z,101120.33
2023-05-19T05:39:30.564Z,101126.44
2023-05-19T05:40:32.532Z,101128.13
2023-05-19T05:41:34.250Z,101124.59
2023-05-19T05:42:36.108Z,101125.45
2023-05-19T05:43:38.000Z,101129.81
2023-05-19T05:44:39.850Z,101134.13
2023-05-19T05:45:41.723Z,101134.96
2023-05-19T05:46:43.603Z,101128.77
2023-05-19T05:47:45.611Z,101124.34
2023-05-19T05:48:47.549Z,101133.09
2023-05-19T05:49:49.926Z,101124.21
2023-05-19T05:50:52.988Z,101125.93
2023-05-19T05:52:58.370Z,101127.58
2023-05-19T05:54:00.128Z,101127.52
2023-05-19T05:55:01.993Z,101128.34
2023-05-19T05:56:03.877Z,101130.95
2023-05-19T05:57:05.722Z,101123.88
2023-05-19T05:58:07.572Z,101122.96
2023-05-19T05:59:09.449Z,101127.31
2023-05-19T06:00:11.885Z,101124.64
2023-05-19T06:01:13.726Z,101126.36
2023-05-19T06:02:15.695Z,101127.21
2023-05-19T06:03:17.650Z,101126.29
2023-05-19T06:04:19.863Z,101126.25
2023-05-19T06:05:21.777Z,101124.44
2023-05-19T06:06:23.665Z,101129.65
2023-05-19T06:07:25.517Z,101123.48
2023-05-19T06:08:27.369Z,101119.02
2023-05-19T06:09:29.133Z,101120.73
2023-05-19T06:10:32.664Z,101124.19
2023-05-19T06:11:34.836Z,101123.27
2023-05-19T06:12:36.695Z,101117.98
2023-05-19T06:13:38.539Z,101121.48
2023-05-19T06:14:40.440Z,101122.34
2023-05-19T06:15:42.327Z,101117.88
2023-05-19T06:16:44.212Z,101117.80
2023-05-19T06:17:46.378Z,101121.30
2023-05-19T06:18:48.242Z,101120.38
2023-05-19T06:19:50.091Z,101123.02
2023-05-19T06:20:51.948Z,101115.05
2023-05-19T06:21:53.802Z,101117.66
2023-05-19T06:22:55.560Z,101122.87
2023-05-19T06:23:57.409Z,101123.72
2023-05-19T06:24:59.317Z,101117.55
2023-05-19T06:26:01.267Z,101119.22
2023-05-19T06:27:03.219Z,101120.04
2023-05-19T06:28:05.172Z,101127.92
2023-05-19T06:29:07.135Z,101131.39
2023-05-19T06:30:10.102Z,101128.67
2023-05-19T06:31:14.868Z,101127.78
2023-05-19T06:32:16.566Z,101126.81
2023-05-19T06:33:18.419Z,101125.88
2023-05-19T06:34:20.371Z,101121.41
2023-05-19T06:35:22.307Z,101126.66
2023-05-19T06:36:24.280Z,101128.37
2023-05-19T06:37:26.224Z,101120.36
2023-05-19T06:38:28.187Z,101118.58
2023-05-19T06:39:30.018Z,101122.00
2023-05-19T06:40:32.174Z,101120.17
2023-05-19T06:41:34.358Z,101120.12
2023-05-19T06:42:36.218Z,101120.94
2023-05-19T06:43:40.672Z,101124.41
2023-05-19T06:44:42.480Z,101114.64
2023-05-19T06:45:44.405Z,101112.89
2023-05-19T06:46:46.489Z,101112.89
2023-05-19T06:47:48.568Z,101111.84
2023-05-19T06:48:50.467Z,101116.23
2023-05-19T06:49:52.417Z,101112.77
2023-05-19T06:50:54.721Z,101114.39
2023-05-19T06:51:56.532Z,101115.20
2023-05-19T06:52:58.534Z,101120.41
2023-05-19T06:54:00.574Z,101115.89
2023-05-19T06:55:02.596Z,101119.43
2023-05-19T06:56:04.664Z,101126.39
2023-05-19T06:57:06.900Z,101116.70
2023-05-19T06:58:08.759Z,101113.09
2023-05-19T06:59:10.805Z,101113.05
2023-05-19T07:00:15.255Z,101118.28
2023-05-19T07:01:17.094Z,101110.31
2023-05-19T07:02:19.021Z,101104.05
2023-05-19T07:03:21.500Z,101111.89
2023-05-19T07:04:23.544Z,101114.45
2023-05-19T07:05:25.918Z,101112.61
2023-05-19T07:06:27.863Z,101118.72
2023-05-19T07:07:29.814Z,101115.17
2023-05-19T07:08:31.762Z,101118.63
2023-05-19T07:09:33.761Z,101120.38
2023-05-19T07:10:35.968Z,101117.69
2023-05-19T07:11:37.822Z,101115.86
2023-05-19T07:12:39.565Z,101115.81
2023-05-19T07:13:41.419Z,101115.77
2023-05-19T07:14:43.274Z,101121.91
2023-05-19T07:15:45.147Z,101110.39
2023-05-19T07:16:47.181Z,101120.97
2023-05-19T07:17:49.191Z,101124.47
2023-05-19T07:18:51.157Z,101120.89
2023-05-19T07:19:53.143Z,101115.59
2023-05-19T07:20:55.087Z,101116.48
2023-05-19T07:21:56.940Z,101112.05
2023-05-19T07:22:58.888Z,101118.20
2023-05-19T07:24:00.643Z,101125.28
2023-05-19T07:25:02.377Z,101119.94
2023-05-19T07:26:04.211Z,101119.09
2023-05-19T07:27:06.127Z,101123.48
2023-05-19T07:28:08.044Z,101118.15
2023-05-19T07:29:09.987Z,101117.25
2023-05-19T07:30:12.069Z,101119.04
2023-05-19T07:31:13.882Z,101124.33
2023-05-19T07:32:15.862Z,101121.69
2023-05-19T07:33:17.790Z,101120.80
2023-05-19T07:34:19.656Z,101117.25
2023-05-19T07:35:21.407Z,101121.64
2023-05-19T07:36:23.963Z,101119.00
2023-05-19T07:37:25.875Z,101126.00
2023-05-19T07:38:27.801Z,101123.31
2023-05-19T07:39:29.842Z,101114.47
2023-05-19T07:40:32.313Z,101119.72
2023-05-19T07:41:36.287Z,101127.62
2023-05-19T07:42:38.131Z,101115.27
2023-05-19T07:43:39.873Z,101123.16
2023-05-19T07:44:41.603Z,101119.59
2023-05-19T07:45:43.404Z,101123.08
2023-05-19T07:46:45.334Z,101118.64
2023-05-19T07:47:47.240Z,101121.27
2023-05-19T07:48:49.084Z,101124.78
2023-05-19T07:49:51.867Z,101122.09
2023-05-19T07:50:54.166Z,101119.44
2023-05-19T07:51:56.115Z,101106.16
2023-05-19T07:52:58.065Z,101109.69
2023-05-19T07:54:00.016Z,101126.34
2023-05-19T07:55:01.867Z,101121.00
2023-05-19T07:56:03.715Z,101120.95
2023-05-19T07:57:05.478Z,101119.12
2023-05-19T07:58:07.654Z,101133.20
2023-05-19T07:59:09.528Z,101128.72
2023-05-19T08:00:11.356Z,101118.97
2023-05-19T08:01:13.227Z,101125.92
2023-05-19T08:02:14.980Z,101122.42
2023-05-19T08:03:16.995Z,101131.09
2023-05-19T08:04:19.035Z,101128.39
2023-05-19T08:05:21.002Z,101127.48
2023-05-19T08:06:23.149Z,101125.65
2023-05-19T08:07:24.998Z,101126.48
2023-05-19T08:08:26.761Z,101122.00
2023-05-19T08:09:28.621Z,101126.39
2023-05-19T08:10:30.760Z,101131.64
2023-05-19T08:11:32.814Z,101125.44
2023-05-19T08:12:34.658Z,101114.84
2023-05-19T08:13:36.438Z,101112.10
2023-05-19T08:14:38.279Z,101118.20
2023-05-19T08:15:40.052Z,101122.51
2023-05-19T08:16:42.174Z,101122.51
2023-05-19T08:17:44.123Z,101126.82
2023-05-19T08:18:46.190Z,101128.56
2023-05-19T08:19:48.026Z,101125.91
2023-05-19T08:20:49.939Z,101125.81
2023-05-19T08:21:51.681Z,101120.52
2023-05-19T08:22:53.529Z,101116.02
2023-05-19T08:23:55.409Z,101114.22
2023-05-19T08:24:57.260Z,101126.53
2023-05-19T08:25:59.095Z,101127.37
2023-05-19T08:27:01.093Z,101120.22
2023-05-19T08:28:03.017Z,101122.83
2023-05-19T08:29:05.052Z,101121.92
2023-05-19T08:30:07.058Z,101126.31
2023-05-19T08:31:08.929Z,101125.33
2023-05-19T08:32:12.457Z,101118.25
2023-05-19T08:33:14.565Z,101120.84
2023-05-19T08:34:16.372Z,101115.50
2023-05-19T08:35:18.125Z,101118.09
2023-05-19T08:36:20.069Z,101112.80
2023-05-19T08:37:21.889Z,101116.25
2023-05-19T08:38:23.725Z,101131.20
2023-05-19T08:39:25.593Z,101123.25
2023-05-19T08:40:27.450Z,101124.91
2023-05-19T08:41:29.309Z,101121.35
2023-05-19T08:42:31.150Z,101112.48
2023-05-19T08:43:33.003Z,101114.23
2023-05-19T08:44:34.896Z,101127.44
2023-05-19T08:45:36.758Z,101106.18
2023-05-19T08:46:38.691Z,101106.12
2023-05-19T08:47:40.462Z,101114.89
2023-05-19T08:48:42.196Z,101110.34
2023-05-19T08:49:43.941Z,101122.69
2023-05-19T08:50:45.791Z,101121.67
2023-05-19T08:51:47.499Z,101115.44
2023-05-19T08:52:51.843Z,101111.02
2023-05-19T08:53:53.063Z,101110.97
2023-05-19T08:54:54.980Z,101114.47
2023-05-19T08:55:56.842Z,101124.22
2023-05-19T08:56:58.774Z,101109.17
2023-05-19T08:58:00.665Z,101113.56
2023-05-19T08:59:02.710Z,101111.82
2023-05-19T09:00:04.877Z,101113.61
2023-05-19T09:01:06.854Z,101103.01
2023-05-19T09:02:08.886Z,101110.97
2023-05-19T09:04:15.346Z,101107.47
2023-05-19T09:05:17.519Z,101103.11
2023-05-19T09:06:19.451Z,101103.11
2023-05-19T09:07:21.325Z,101104.83
2023-05-19T09:08:23.058Z,101111.92
2023-05-19T09:09:24.932Z,101102.33
2023-05-19T09:10:28.469Z,101102.33
2023-05-19T09:11:30.613Z,101100.46
2023-05-19T09:12:32.468Z,101102.23
2023-05-19T09:13:34.324Z,101099.52
2023-05-19T09:14:36.167Z,101095.96
2023-05-19T09:15:38.068Z,101102.13
2023-05-19T09:16:39.989Z,101095.00
2023-05-19T09:19:03.133Z,101096.59
2023-05-19T09:20:05.051Z,101088.58
2023-05-19T09:21:06.925Z,101091.06
2023-05-19T09:22:08.808Z,101091.06
2023-05-19T09:23:12.855Z,101088.30
2023-05-19T09:24:14.630Z,101099.66
2023-05-19T09:25:16.541Z,101092.51
2023-05-19T09:26:18.821Z,101082.73
2023-05-19T09:27:20.670Z,101089.72
2023-05-19T09:28:22.507Z,101081.70
2023-05-19T09:29:24.281Z,101087.77
2023-05-19T09:30:26.108Z,101077.07
2023-05-19T09:31:28.021Z,101079.67
2023-05-19T09:32:30.001Z,101083.06
2023-05-19T09:33:32.980Z,101075.99
2023-05-19T09:34:34.933Z,101076.73
2023-05-19T09:35:36.974Z,101076.68
2023-05-19T09:36:39.030Z,101075.72
2023-05-19T09:37:40.963Z,101076.52
2023-05-19T09:38:42.815Z,101079.94
2023-05-19T09:39:44.773Z,101078.03
2023-05-19T09:40:46.820Z,101077.06
2023-05-19T09:41:48.777Z,101068.20
2023-05-19T09:42:50.728Z,101072.61
2023-05-19T09:43:52.495Z,101073.46
2023-05-19T09:44:54.428Z,101070.75
2023-05-19T09:45:56.439Z,101066.33
2023-05-19T09:46:58.582Z,101067.13
2023-05-19T09:48:00.531Z,101071.52
2023-05-19T09:49:02.546Z,101065.20
2023-05-19T09:50:04.602Z,101070.44
2023-05-19T09:51:06.607Z,101065.06
2023-05-19T09:52:09.115Z,101065.01
2023-05-19T09:53:12.939Z,101063.27
2023-05-19T09:54:14.763Z,101061.52
2023-05-19T09:55:16.720Z,101064.18
2023-05-19T09:56:18.780Z,101070.31
2023-05-19T09:57:20.726Z,101064.95
2023-05-19T09:58:22.680Z,101063.15
2023-05-19T09:59:24.633Z,101073.77
2023-05-19T10:00:26.688Z,101072.20
2023-05-19T10:01:28.765Z,101074.68
2023-05-19T10:02:30.693Z,101060.61
2023-05-19T10:03:32.754Z,101073.03
2023-05-19T10:04:34.657Z,101064.23
2023-05-19T10:05:36.666Z,101067.01
2023-05-19T10:06:38.805Z,101075.88
2023-05-19T10:07:40.772Z,101067.98
2023-05-19T10:08:42.632Z,101071.58
2023-05-19T10:11:05.866Z,101067.18
2023-05-19T10:12:07.830Z,101065.38
2023-05-19T10:13:10.078Z,101057.42
2023-05-19T10:14:12.061Z,101058.30
2023-05-19T10:15:14.001Z,101047.69
2023-05-19T10:16:16.371Z,101062.67
2023-05-19T10:17:18.399Z,101060.91
2023-05-19T10:18:20.355Z,101051.20
2023-05-19T10:19:22.365Z,101048.66
2023-05-19T10:20:24.362Z,101058.42
2023-05-19T10:21:26.326Z,101051.38
2023-05-19T10:22:28.366Z,101048.77
2023-05-19T10:23:30.219Z,101061.25
2023-05-19T10:24:32.224Z,101047.09
2023-05-19T10:25:34.249Z,101047.14
2023-05-19T10:26:36.792Z,101048.95
2023-05-19T10:27:38.758Z,101043.70
2023-05-19T10:28:40.595Z,101051.72
2023-05-19T10:29:42.454Z,101047.27
2023-05-19T10:30:44.733Z,101050.86
2023-05-19T10:31:46.698Z,101050.86
2023-05-19T10:32:48.735Z,101045.55
2023-05-19T10:33:50.677Z,101041.09
2023-05-19T10:34:52.643Z,101040.19
2023-05-19T10:35:54.672Z,101044.55
2023-05-19T10:36:56.930Z,101049.00
2023-05-19T10:37:58.677Z,101044.61
2023-05-19T10:39:00.637Z,101041.95
2023-05-19T10:40:02.582Z,101027.72
2023-05-19T10:41:04.445Z,101032.97
2023-05-19T10:42:06.505Z,101035.56
2023-05-19T10:43:08.543Z,101036.36
2023-05-19T10:44:10.503Z,101036.30
2023-05-19T10:45:12.454Z,101048.66
2023-05-19T10:46:14.901Z,101031.82
2023-05-19T10:47:16.942Z,101030.02
2023-05-19T10:48:18.921Z,101035.33
2023-05-19T10:49:20.766Z,101034.41
2023-05-19T10:50:22.750Z,101034.41
2023-05-19T10:51:24.780Z,101029.11
2023-05-19T10:52:26.965Z,101037.07
2023-05-19T10:53:28.905Z,101029.96
2023-05-19T10:54:31.056Z,101035.33
2023-05-19T10:55:33.036Z,101035.33
2023-05-19T10:56:35.270Z,101035.27
2023-05-19T10:57:37.218Z,101029.91
2023-05-19T10:58:39.185Z,101049.34
2023-05-19T10:59:41.222Z,101036.95
2023-05-19T11:00:43.186Z,101037.87
2023-05-19T11:01:45.259Z,101039.66
2023-05-19T11:02:47.302Z,101037.92
2023-05-19T11:03:49.389Z,101036.18
2023-05-19T11:04:51.900Z,101041.55
2023-05-19T11:05:54.058Z,101037.13
2023-05-19T11:06:55.906Z,101038.09
2023-05-19T11:07:57.868Z,101044.27
2023-05-19T11:08:59.715Z,101043.41
2023-05-19T11:10:01.769Z,101050.58
2023-05-19T11:11:03.727Z,101048.77
2023-05-19T11:12:05.675Z,101044.38
2023-05-19T11:13:07.640Z,101040.02
2023-05-19T11:14:09.679Z,101046.17
2023-05-19T11:15:11.637Z,101049.69
2023-05-19T11:16:13.806Z,101045.27
2023-05-19T11:17:15.788Z,101040.81
2023-05-19T11:18:17.794Z,101038.22
2023-05-19T11:19:19.702Z,101047.98
2023-05-19T11:20:22.321Z,101040.02
2023-05-19T11:21:24.330Z,101045.27
2023-05-19T11:22:26.257Z,101047.92
2023-05-19T11:23:28.465Z,101039.06
2023-05-19T11:24:30.436Z,101028.51
2023-05-19T11:25:32.529Z,101049.74
2023-05-19T11:26:34.643Z,101025.80
2023-05-19T11:27:36.597Z,101035.44
2023-05-19T11:28:38.445Z,101035.33
2023-05-19T11:29:40.306Z,101040.52
2023-05-19T11:30:42.558Z,101056.39
2023-05-19T11:31:44.562Z,101043.11
2023-05-19T11:32:46.546Z,101051.94
2023-05-19T11:33:48.418Z,101051.94
2023-05-19T11:34:50.378Z,101055.53
2023-05-19T11:35:52.325Z,101052.88
2023-05-19T11:36:54.373Z,101046.69
2023-05-19T11:37:56.330Z,101063.61
2023-05-19T11:38:58.177Z,101058.36
2023-05-19T11:40:02.698Z,101057.48
2023-05-19T11:41:04.748Z,101059.33
2023-05-19T11:42:06.707Z,101058.59
2023-05-19T11:43:08.654Z,101060.47
2023-05-19T11:44:10.608Z,101053.45
2023-05-19T11:45:12.752Z,101061.53
2023-05-19T11:46:15.668Z,101058.11
2023-05-19T11:47:17.581Z,101057.25
2023-05-19T11:48:19.453Z,101060.87
2023-05-19T11:49:21.496Z,101054.83
2023-05-19T11:50:23.582Z,101057.53
2023-05-19T11:51:25.595Z,101062.01
2023-05-19T11:52:27.564Z,101060.37
2023-05-19T11:53:29.508Z,101058.63
2023-05-19T11:54:31.456Z,101061.28